Current Conditions



Rainfall
0.00 (mm) - 0.00 (in)
Pressure
1031.92 (hPa) - 30.47 (inHG)
Visibility

10.0 (km) - 6.2 (miles)
   Temperature
6  °C
43°F
4  °C
Dewpoint
87  %
 Humidity
   Wind Speed
16  km/h
9  kts
10  mph
4.5  m/s
   Wind Direction
 280°
Due West
   Airport Data
EHLE
Location Lelystad Airport 20 km (12.43 mi)
Metar :EHLE 212225Z AUTO 28009KT 9999 OVC014 06/04 Q1032
Sat 22nd January 00:25 am
   Raw Metar Info
Raw METAR is the most common format in the world for the transmission of observational weather data. It is highly standardized through the International Civil Aviation Organization (ICAO), which allows it to be understood throughout most of the world.
   API Info
Data Provided by
https://www.checkwx.com/weather/EHLE
   © Info
CSS/SVG/PHP scripts were developed by weather34.com for use in the weather34 template © 2015-2022

Guide Info provided by Metar-Wikipedia